Data for 08/02/2007

Time Sea-Level Adjusted Pressure Absolute Pressure Temperature Relative Humidity Dew Point   
(mb) (inHg) (mb) (inHg) (C) (F) (%) (C) (F)
00:05 1022 30.18 851 25.13 19.7 67.5 49 8.8 47.8
00:10 1022 30.18 851 25.13 19.7 67.5 49 8.8 47.8
00:15 1022 30.18 851 25.13 19.7 67.4 48 8.6 47.5
00:20 1022 30.18 851 25.13 19.7 67.4 49 8.6 47.6
00:25 1022 30.18 852 25.16 19.6 67.3 49 8.6 47.5
00:30 1022 30.18 851 25.13 19.5 67.1 49 8.6 47.5
00:35 1022 30.18 852 25.16 19.4 67 49 8.5 47.3
00:40 1022 30.18 851 25.13 19.4 66.8 49 8.6 47.4
00:45 1022 30.18 851 25.13 19.3 66.7 49 8.5 47.3
00:50 1022 30.18 851 25.13 19.2 66.5 49 8.4 47.1
00:55 1022 30.18 851 25.13 19.1 66.3 50 8.4 47.1
01:00 1022 30.18 851 25.13 19 66.3 50 8.4 47
01:05 1022 30.18 851 25.13 19 66.1 49 8.2 46.8
01:10 1022 30.18 851 25.13 19 66.1 49 8.2 46.7
01:15 1022 30.18 851 25.13 18.9 66.1 49 8.2 46.7
01:20 1022 30.18 851 25.13 18.8 65.9 49 8 46.5
01:25 1022 30.18 851 25.13 18.8 65.8 49 8.1 46.6
01:30 1022 30.18 851 25.13 18.7 65.7 49 8 46.4
01:35 1022 30.18 851 25.13 18.6 65.6 49 7.9 46.2
01:40 1022 30.18 851 25.13 18.6 65.6 48 7.7 45.8
01:45 1022 30.18 851 25.13 18.6 65.6 48 7.6 45.8
01:50 1022 30.18 851 25.13 18.6 65.4 49 7.6 45.7
01:55 1022 30.18 851 25.13 18.6 65.4 48 7.5 45.6
02:00 1022 30.18 851 25.13 18.5 65.4 48 7.4 45.4
02:05 1022 30.18 851 25.13 18.5 65.3 48 7.4 45.2
02:10 1022 30.18 851 25.13 18.5 65.3 48 7.3 45.2
02:15 1022 30.18 851 25.13 18.4 65.1 48 7.3 45.1
02:20 1022 30.18 851 25.13 18.3 64.9 48 7.3 45.2
02:25 1022 30.18 851 25.13 18.2 64.8 48 7.2 44.9
02:30 1022 30.18 851 25.13 18.2 64.7 48 7.2 44.9
02:35 1022 30.18 851 25.13 18.2 64.7 48 7.2 45
02:40 1022 30.18 851 25.13 18.1 64.5 48 7.2 44.9
02:45 1022 30.18 851 25.13 18 64.4 49 7.1 44.8
02:50 1022 30.18 851 25.13 18 64.4 48 7.1 44.7
02:55 1022 30.18 851 25.13 18 64.3 48 7.1 44.7
03:00 1022 30.18 851 25.13 17.9 64.2 49 7 44.7
03:05 1022 30.18 851 25.13 17.9 64.3 48 7 44.6
03:10 1022 30.18 851 25.13 17.9 64.3 48 7 44.6
03:15 1022 30.18 851 25.13 17.9 64.2 49 7.1 44.8
03:20 1022 30.18 851 25.13 17.8 64 49 7.1 44.7
03:25 1022 30.18 851 25.13 17.7 63.9 49 7 44.5
03:30 1022 30.18 851 25.13 17.7 63.9 49 7 44.6
03:35 1022 30.18 851 25.13 17.6 63.6 49 7 44.6
03:40 1022 30.18 851 25.13 17.6 63.6 49 6.9 44.3
03:45 1022 30.18 851 25.13 17.5 63.6 49 6.9 44.4
03:50 1022 30.18 851 25.13 17.6 63.6 49 6.8 44.2
03:55 1022 30.18 851 25.13 17.5 63.5 49 6.7 44
04:00 1022 30.18 851 25.13 17.6 63.6 48 6.7 44
04:05 1022 30.18 851 25.13 17.5 63.5 48 6.5 43.8
04:10 1022 30.18 851 25.13 17.6 63.7 48 6.5 43.7
04:15 1022 30.18 851 25.13 17.6 63.8 47 6.4 43.5
04:20 1022 30.18 851 25.13 17.6 63.7 47 6.4 43.4
04:25 1022 30.18 851 25.13 17.6 63.7 47 6.4 43.6
04:30 1022 30.18 851 25.13 17.4 63.4 47 6.2 43.1
04:35 1022 30.18 851 25.13 17.5 63.5 46 6 42.8
04:40 1022 30.18 851 25.13 17.5 63.5 46 5.9 42.6
04:45 1022 30.18 851 25.13 17.5 63.5 46 5.9 42.7
04:50 1022 30.18 852 25.16 17.4 63.4 46 5.9 42.6
04:55 1022 30.18 852 25.16 17.3 63.2 46 5.8 42.4
05:00 1022 30.18 852 25.16 17.3 63.1 46 5.6 42
05:05 1022 30.18 852 25.16 17.2 63 45 5.5 41.8
05:10 1022 30.18 852 25.16 17.2 63 45 5.2 41.4
05:15 1022 30.18 852 25.16 17.3 63.2 44 5.1 41.2
05:20 1022 30.18 851 25.13 17.3 63.1 44 5.1 41.3
05:25 1022 30.18 851 25.13 17.2 62.9 44 5.1 41.1
05:30 1022 30.18 852 25.16 17.2 62.9 44 4.9 40.9
05:35 1022 30.18 852 25.16 17.2 62.9 44 4.9 40.8
05:40 1022 30.18 852 25.16 17.1 62.8 44 4.8 40.6
05:45 1022 30.18 852 25.16 17 62.7 44 4.8 40.6
05:50 1022 30.18 852 25.16 17 62.7 44 4.8 40.7
05:55 1022 30.18 852 25.16 17 62.6 45 5 41
06:00 1022 30.18 852 25.16 16.9 62.3 45 5 40.9
06:05 1022 30.18 852 25.16 16.8 62.2 46 5.1 41.2
06:10 1022 30.18 852 25.16 16.7 62.1 46 5.1 41.1
06:15 1022 30.18 852 25.16 16.7 62 46 5.2 41.4
06:20 1022 30.18 852 25.16 16.6 61.9 47 5.2 41.4
06:25 1022 30.18 852 25.16 16.6 61.9 47 5.2 41.4
06:30 1022 30.18 852 25.16 16.6 61.8 47 5.2 41.3
06:35 1022 30.18 852 25.16 16.6 61.9 47 5.2 41.3
06:40 1022 30.18 852 25.16 16.6 61.8 47 5.2 41.4
06:45 1022 30.18 852 25.16 16.5 61.7 47 5.1 41.2
06:50 1022 30.18 852 25.16 16.5 61.8 47 5.2 41.3
06:55 1023 30.21 852 25.16 16.6 61.8 46 5 41
07:00 1022 30.18 852 25.16 16.6 61.8 46 5.1 41.2
07:05 1022 30.18 852 25.16 16.6 61.8 46 5 41.1
07:10 1022 30.18 852 25.16 16.5 61.7 47 5.1 41.2
07:15 1022 30.18 852 25.16 16.5 61.7 47 5.2 41.3
07:20 1022 30.18 852 25.16 16.5 61.7 46 5 41.1
07:25 1022 30.18 852 25.16 16.6 61.8 46 5.1 41.2
07:30 1022 30.18 852 25.16 16.6 61.8 46 4.9 40.9
07:35 1022 30.18 852 25.16 16.6 61.9 45 4.9 40.8
07:40 1022 30.18 852 25.16 16.7 62.1 45 4.7 40.4
07:45 1022 30.18 852 25.16 16.9 62.3 45 4.9 40.9
07:50 1022 30.18 852 25.16 17 62.7 44 4.9 40.8
07:55 1022 30.18 852 25.16 17 62.7 44 4.7 40.5
08:00 1022 30.18 852 25.16 16.9 62.5 44 4.8 40.6
08:05 1022 30.18 852 25.16 17 62.6 44 4.7 40.5
08:10 1022 30.18 852 25.16 17.1 62.7 43 4.6 40.3
08:15 1022 30.18 852 25.16 17.2 63 43 4.7 40.4
08:20 1022 30.18 852 25.16 17.4 63.3 42 4.6 40.2
08:25 1022 30.18 852 25.16 17.5 63.5 43 4.8 40.6
08:30 1022 30.18 852 25.16 17.5 63.4 43 4.8 40.7
08:35 1022 30.18 852 25.16 17.4 63.3 44 5.2 41.3
08:40 1022 30.18 852 25.16 17.5 63.6 43 5.1 41.1
08:45 1022 30.18 852 25.16 17.7 63.8 43 5.1 41.3
08:50 1022 30.18 852 25.16 17.8 64 43 5 41
08:55 1022 30.18 852 25.16 17.9 64.3 43 5.2 41.3
09:00 1022 30.18 852 25.16 18.1 64.7 41 5 40.9
09:05 1022 30.18 852 25.16 18.3 65 42 5.2 41.4
09:10 1022 30.18 852 25.16 18.4 65.2 41 5.1 41.2
09:15 1022 30.18 852 25.16 18.7 65.6 41 5.5 41.8
09:20 1022 30.18 852 25.16 18.9 66 41 5.6 42
09:25 1022 30.18 852 25.16 19.3 66.7 40 5.6 42.1
09:30 1022 30.18 852 25.16 19.5 67 41 6.1 43
09:35 1022 30.18 851 25.13 19.7 67.4 41 6.2 43.1
09:40 1022 30.18 851 25.13 19.7 67.4 42 6.5 43.6
09:45 1022 30.18 851 25.13 19.9 67.9 43 7.1 44.7
09:50 1022 30.18 852 25.16 20.1 68.1 43 7.2 44.9
09:55 1022 30.18 852 25.16 20.6 69.1 41 7 44.7
10:00 1022 30.18 852 25.16 20.7 69.3 41 7.3 45.1
10:05 1022 30.18 851 25.13 20.6 69.1 42 7.4 45.3
10:10 1022 30.18 851 25.13 20.6 69.1 43 7.7 45.9
10:15 1022 30.18 851 25.13 20.5 68.9 43 7.8 46
10:20 1022 30.18 851 25.13 20.5 68.9 44 7.9 46.2
10:25 1022 30.18 851 25.13 20.7 69.3 44 8.3 46.9
10:30 1022 30.18 851 25.13 21.2 70.1 43 8.3 46.9
10:35 1022 30.18 851 25.13 21.4 70.6 43 8.6 47.5
10:40 1022 30.18 851 25.13 21.5 70.8 42 8.4 47.1
10:45 1022 30.18 851 25.13 21.5 70.7 43 8.5 47.3
10:50 1022 30.18 851 25.13 21.6 70.9 44 8.9 48.1
10:55 1022 30.18 851 25.13 21.7 71.1 43 8.8 47.9
11:00 1022 30.18 851 25.13 21.8 71.2 44 9 48.2
11:05 1022 30.18 851 25.13 22.1 71.7 43 9 48.2
11:10 1022 30.18 851 25.13 22.3 72.2 43 9.4 48.9
11:15 1022 30.18 851 25.13 22.4 72.4 42 9.2 48.5
11:20 1022 30.18 851 25.13 22.2 71.9 43 9.2 48.5
11:25 1022 30.18 851 25.13 22.6 72.6 41 8.9 47.9
11:30 1022 30.18 851 25.13 23.2 73.7 39 8.7 47.7
11:35 1022 30.18 851 25.13 23.3 73.9 40 9.1 48.4
11:40 1022 30.18 851 25.13 23.2 73.8 40 9 48.1
11:45 1022 30.18 851 25.13 23 73.4 40 8.9 48
11:50 1021 30.15 851 25.13 23.2 73.7 40 9 48.2
11:55 1021 30.15 851 25.13 23.5 74.3 37 8.3 46.9
12:00 1021 30.15 851 25.13 24 75.2 36 8.2 46.7
12:05 1021 30.15 851 25.13 24.2 75.6 35 8.1 46.6
12:10 1021 30.15 851 25.13 24.4 75.8 35 8.3 46.9
12:15 1021 30.15 850 25.1 24.5 76 35 8.3 47
12:20 1021 30.15 850 25.1 24.4 75.8 35 7.9 46.3
12:25 1021 30.15 850 25.1 24.9 76.8 34 8.3 47
12:30 1021 30.15 850 25.1 25.2 77.3 33 8.2 46.7
12:35 1021 30.15 850 25.1 25.5 77.8 33 8.5 47.2
12:40 1021 30.15 850 25.1 25.6 78 33 8.2 46.7
12:45 1021 30.15 850 25.1 26.2 79.2 31 8.1 46.5
12:50 1021 30.15 850 25.1 26.4 79.4 32 8.4 47.1
12:55 1021 30.15 850 25.1 26.2 79.2 31 8.1 46.6
13:00 1021 30.15 850 25.1 26.4 79.5 31 8.4 47.1
13:05 1021 30.15 850 25.1 26.1 78.9 33 8.7 47.7
13:10 1021 30.15 850 25.1 26.5 79.6 32 8.7 47.7
13:15 1021 30.15 850 25.1 27.1 80.8 30 8.3 46.9
13:20 1021 30.15 850 25.1 27 80.6 31 8.8 47.9
13:25 1021 30.15 850 25.1 27.4 81.2 32 9.4 49
13:30 1021 30.15 850 25.1 27.7 81.9 30 8.9 48
13:35 1021 30.15 850 25.1 28.1 82.5 28 8.3 47
13:40 1020 30.12 850 25.1 27.2 80.9 30 8.4 47
13:45 1020 30.12 850 25.1 26.8 80.3 30 8.3 46.9
13:50 1020 30.12 850 25.1 26.8 80.3 30 8.2 46.8
13:55 1020 30.12 850 25.1 27.2 80.9 30 8.6 47.4
14:00 1020 30.12 850 25.1 27.1 80.8 32 9.1 48.4
14:05 1020 30.12 849 25.07 27.8 82 29 8.5 47.3
14:10 1020 30.12 849 25.07 28.3 83 28 8.5 47.3
14:15 1020 30.12 849 25.07 28.3 82.9 27 8 46.4
14:20 1020 30.12 849 25.07 28.4 83.2 27 8.2 46.7
14:25 1020 30.12 849 25.07 28.4 83.1 28 8.3 47
14:30 1020 30.12 849 25.07 28.6 83.5 27 8.1 46.6
14:35 1020 30.12 849 25.07 28.6 83.4 27 8.1 46.5
14:40 1020 30.12 849 25.07 29.2 84.5 27 8.5 47.4
14:45 1020 30.12 849 25.07 29.4 85 27 8.7 47.7
14:50 1020 30.12 849 25.07 29.3 84.7 27 8.4 47.1
14:55 1020 30.12 849 25.07 29.1 84.5 27 8.5 47.3
15:00 1020 30.12 849 25.07 28.9 83.9 27 8.2 46.7
15:05 1020 30.12 849 25.07 28.9 83.9 27 8.5 47.4
15:10 1020 30.12 849 25.07 29.1 84.3 26 8 46.4
15:15 1020 30.12 849 25.07 29.5 85.1 27 8.8 47.8
15:20 1020 30.12 849 25.07 29.3 84.7 26 8.3 46.9
15:25 1020 30.12 849 25.07 29.1 84.4 27 8.5 47.3
15:30 1019 30.09 849 25.07 28.8 83.8 26 7.9 46.2
15:35 1019 30.09 849 25.07 29 84.2 27 8.5 47.3
15:40 1019 30.09 849 25.07 28.9 84.1 28 8.7 47.7
15:45 1019 30.09 849 25.07 28.9 84 27 8.3 46.9
15:50 1019 30.09 849 25.07 28.8 83.9 27 8 46.5
15:55 1019 30.09 848 25.04 29.1 84.4 26 7.7 45.9
16:00 1019 30.09 848 25.04 29.4 84.9 26 8.2 46.7
16:05 1019 30.09 848 25.04 29.5 85 26 8.5 47.4
16:10 1019 30.09 848 25.04 29.1 84.4 26 7.8 46.1
16:15 1019 30.09 848 25.04 29.2 84.6 26 8.3 46.9
16:20 1019 30.09 848 25.04 29.3 84.7 26 7.9 46.2
16:25 1019 30.09 848 25.04 28.8 83.9 27 8.5 47.3
16:30 1019 30.09 848 25.04 28.5 83.3 28 8.3 46.9
16:35 1019 30.09 848 25.04 28.2 82.7 28 8.2 46.7
16:40 1019 30.09 848 25.04 27.8 82 28 8.1 46.5
16:45 1019 30.09 848 25.04 27.7 81.8 28 7.9 46.2
16:50 1019 30.09 848 25.04 27.6 81.6 29 8 46.4
16:55 1019 30.09 848 25.04 27.4 81.3 29 8.2 46.8
17:00 1019 30.09 848 25.04 27.1 80.8 30 8.2 46.7
17:05 1019 30.09 848 25.04 26.8 80.2 30 8.1 46.6
17:10 1019 30.09 848 25.04 26.6 80 31 8.2 46.8
17:15 1019 30.09 848 25.04 26.6 79.8 31 8.3 47
17:20 1019 30.09 848 25.04 26.4 79.5 31 8.1 46.6
17:25 1019 30.09 848 25.04 26.2 79.2 31 8.2 46.8
17:30 1019 30.09 848 25.04 26.1 78.9 31 8 46.4
17:35 1019 30.09 848 25.04 26.1 78.9 31 8 46.4
17:40 1019 30.09 848 25.04 26 78.8 31 7.9 46.3
17:45 1018 30.06 848 25.04 25.9 78.7 32 8.1 46.6
17:50 1018 30.06 848 25.04 25.9 78.6 32 8.1 46.6
17:55 1018 30.06 848 25.04 25.8 78.4 32 7.9 46.2
18:00 1018 30.06 848 25.04 25.7 78.3 32 8.1 46.5
18:05 1019 30.09 848 25.04 25.7 78.2 32 8.1 46.5
18:10 1019 30.09 848 25.04 25.6 78 32 8 46.5
18:15 1019 30.09 848 25.04 25.6 78 32 8 46.3
18:20 1019 30.09 848 25.04 25.6 78 32 8 46.4
18:25 1018 30.06 848 25.04 25.5 78 32 8 46.3
18:30 1019 30.09 848 25.04 25.5 77.8 32 7.9 46.3
18:35 1019 30.09 848 25.04 25.4 77.8 33 8 46.4
18:40 1019 30.09 848 25.04 25.4 77.7 32 8 46.4
18:45 1019 30.09 848 25.04 25.4 77.6 32 7.9 46.3
18:50 1019 30.09 848 25.04 25.4 77.7 33 8 46.4
18:55 1019 30.09 848 25.04 25.3 77.6 32 7.9 46.2
19:00 1019 30.09 848 25.04 25.3 77.5 33 8 46.5
19:05 1019 30.09 848 25.04 25.3 77.6 32 7.9 46.2
19:10 1019 30.09 848 25.04 25.3 77.6 33 8 46.4
19:15 1019 30.09 848 25.04 25.2 77.4 33 7.9 46.3
19:20 1019 30.09 848 25.04 25.3 77.5 33 8 46.4
19:25 1019 30.09 848 25.04 25.2 77.3 33 8 46.3
19:30 1019 30.09 848 25.04 25.2 77.3 33 8 46.3
19:35 1019 30.09 848 25.04 25.1 77.2 33 7.9 46.2
19:40 1019 30.09 848 25.04 25.1 77.2 33 7.9 46.3
19:45 1019 30.09 848 25.04 25 77.1 33 7.9 46.2
19:50 1018 30.06 848 25.04 25 77 33 8 46.3
19:55 1018 30.06 848 25.04 25 76.9 33 7.8 46.1
20:00 1018 30.06 848 25.04 25 76.9 33 7.9 46.2
20:05 1018 30.06 848 25.04 24.9 76.9 33 7.8 46.1
20:10 1018 30.06 848 25.04 24.8 76.7 33 7.9 46.1
20:15 1018 30.06 848 25.04 24.8 76.6 33 7.8 46
20:20 1018 30.06 848 25.04 24.7 76.5 34 7.9 46.3
20:25 1018 30.06 848 25.04 24.7 76.4 34 7.8 46
20:30 1018 30.06 848 25.04 24.6 76.3 34 7.9 46.1
20:35 1018 30.06 848 25.04 24.5 76.2 34 7.9 46.2
20:40 1018 30.06 848 25.04 24.5 76 34 7.9 46.2
20:45 1019 30.09 848 25.04 24.4 76 34 7.9 46.3
20:50 1019 30.09 848 25.04 24.4 75.8 34 7.9 46.2
20:55 1019 30.09 848 25.04 24.3 75.8 35 7.9 46.3
21:00 1019 30.09 848 25.04 24.3 75.7 34 7.9 46.1
21:05 1019 30.09 848 25.04 24.3 75.7 35 7.8 46.1
21:10 1019 30.09 848 25.04 24.2 75.6 35 7.9 46.2
21:15 1019 30.09 848 25.04 24.2 75.5 35 7.9 46.2
21:20 1019 30.09 848 25.04 24.3 75.7 34 7.8 46
21:25 1019 30.09 848 25.04 24.3 75.8 34 7.8 46
21:30 1019 30.09 848 25.04 24.4 75.9 34 7.8 46
21:35 1019 30.09 848 25.04 24.3 75.8 34 7.7 45.9
21:40 1019 30.09 848 25.04 24.3 75.8 34 7.7 45.9
21:45 1019 30.09 848 25.04 24.4 76 34 7.8 46
21:50 1019 30.09 848 25.04 24.4 75.9 34 7.8 46.1
21:55 1019 30.09 848 25.04 24.3 75.7 35 7.9 46.2
22:00 1019 30.09 849 25.07 24.3 75.7 35 7.9 46.2
22:05 1019 30.09 849 25.07 24.2 75.5 35 7.9 46.3
22:10 1020 30.12 849 25.07 24.2 75.5 35 7.9 46.2
22:15 1020 30.12 849 25.07 24.3 75.7 35 8.3 46.9
22:20 1020 30.12 849 25.07 24 75.2 38 9.1 48.3
22:25 1020 30.12 849 25.07 23.6 74.6 38 8.8 47.8
22:30 1020 30.12 849 25.07 23.5 74.4 36 8 46.3
22:35 1020 30.12 849 25.07 23.6 74.4 36 8 46.4
22:40 1020 30.12 849 25.07 23.1 73.5 40 8.8 47.8
22:45 1020 30.12 849 25.07 22.7 72.8 41 8.9 48
22:50 1020 30.12 849 25.07 22.1 71.9 45 9.7 49.4
22:55 1020 30.12 849 25.07 21.7 71.1 46 9.8 49.6
23:00 1020 30.12 849 25.07 21.5 70.7 48 10.3 50.5
23:05 1020 30.12 849 25.07 21.2 70.2 49 10.3 50.5
23:10 1020 30.12 849 25.07 21 69.8 49 10 50
23:15 1020 30.12 849 25.07 21 69.9 47 9.4 49
23:20 1020 30.12 849 25.07 21.1 70 47 9.5 49
23:25 1020 30.12 849 25.07 21.1 70 46 9.2 48.6
23:30 1020 30.12 849 25.07 21.1 70.1 46 9.2 48.5
23:35 1020 30.12 849 25.07 21 69.8 47 9.5 49.1
23:40 1020 30.12 849 25.07 20.7 69.3 48 9.5 49.1
23:45 1020 30.12 849 25.07 20.5 69 49 9.5 49.2
23:50 1020 30.12 849 25.07 20.5 69 48 9.2 48.5
23:55 1020 30.12 849 25.07 20.5 68.9 48 9.4 48.9
24:00 1020 30.12 849 25.07 20.5 69 48 9.4 48.9